Sunday, November 19, 2017, 2:59 AM GMT
Back to Local

CWWE, Western Head, N. S.

Location: , , Canada Lat: 43.983
Local Time: 2:59 AM GMT ( 2:59 GMT) Lon: -64.667
Time Zone: GMT Elev: 29 ft

Show me the last for .
Show Coded

Time T Td Feel RH Dir Speed Gust Alt SLP Vis Weather Sky Remarks
2017-11-19 02:00 36 32 34 83 320° 3 - - 29.80 0 None
2017-11-19 01:00 36 33 - 87 360° 1 - - 29.81 0 None
2017-11-19 00:00 37 31 34 81 320° 3 - - 29.81 0 None
2017-11-18 23:00 35 29 - 79 - Calm - - 29.82 0 None
2017-11-18 22:00 36 29 - 77 280° 2 - - 29.82 0 None
2017-11-18 21:00 37 30 33 74 290° 5 - - 29.80 0 None
2017-11-18 20:00 39 30 33 68 300° 9 - - 29.80 0 None
2017-11-18 19:00 42 30 34 61 290° 13 20 - 29.79 0 Peak wind: 20 mph (18 kts) from 290° at 19 min
2017-11-18 18:00 42 30 33 60 270° 14 21 - 29.77 0 Peak wind: 23 mph (20 kts) from 310° at 08 min
2017-11-18 17:00 41 29 32 61 280° 13 20 - 29.78 0 Peak wind: 21 mph (19 kts) from 280° at 14 min
2017-11-18 16:00 40 28 31 63 300° 13 18 - 29.79 0 Peak wind: 19 mph (17 kts) from 270° at 38 min
2017-11-18 15:00 37 28 26 72 300° 13 21 - 29.80 0 Peak wind: 21 mph (19 kts) from 260° at 49 min
2017-11-18 14:00 35 28 23 76 300° 13 22 - 29.80 0 Peak wind: 23 mph (20 kts) from 320° at 01 min
2017-11-18 13:00 34 27 23 75 310° 13 20 - 29.80 0 Peak wind: 20 mph (18 kts) from 300° at 16 min
2017-11-18 12:00 34 28 22 79 300° 10 20 - 29.79 0 Peak wind: 19 mph (17 kts) from 300° at 58 min
2017-11-18 11:00 34 28 27 79 300° 8 - - 29.77 0 Peak wind: 19 mph (17 kts) from 290° at 12 min
2017-11-18 10:00 34 28 26 77 290° 10 - - 29.74 0 None
2017-11-18 09:00 34 28 23 79 290° 10 17 - 29.72 0 Peak wind: 23 mph (20 kts) from 280° at 01 min
2017-11-18 08:00 34 28 22 78 290° 12 20 - 29.70 0 Peak wind: 24 mph (21 kts) from 290° at 28 min
2017-11-18 07:00 34 28 22 78 300° 14 23 - 29.68 0 Peak wind: 26 mph (23 kts) from 310° at 45 min
2017-11-18 06:00 35 29 22 78 300° 15 24 - 29.67 0 Peak wind: 29 mph (26 kts) from 290° at 37 min
2017-11-18 05:00 35 29 24 77 300° 15 22 - 29.65 0 Peak wind: 27 mph (24 kts) from 310° at 29 min
2017-11-18 04:00 36 30 23 77 290° 17 29 - 29.65 0 Peak wind: 28 mph (25 kts) from 320° at 52 min
2017-11-18 03:00 36 32 25 84 290° 14 23 - 29.63 0 Peak wind: 26 mph (23 kts) from 260° at 10 min

Support USWX by starting your Amazon purchase here.